createdAt,value
2022-11-02T00:00:17.496Z,99.5
2022-11-02T00:01:17.093Z,99.5
2022-11-02T00:02:17.627Z,99.5
2022-11-02T00:03:17.099Z,99.5
2022-11-02T00:04:16.579Z,99.5
2022-11-02T00:05:17.018Z,99.3
2022-11-02T00:06:16.489Z,99.3
2022-11-02T00:07:16.943Z,99.2
2022-11-02T00:08:17.415Z,99.3
2022-11-02T00:09:16.898Z,99.2
2022-11-02T00:10:17.359Z,99.2
2022-11-02T00:11:16.858Z,99.2
2022-11-02T00:12:16.680Z,99.2
2022-11-02T00:13:17.117Z,99.2
2022-11-02T00:14:16.589Z,99.2
2022-11-02T00:15:17.051Z,99.3
2022-11-02T00:16:16.514Z,99.2
2022-11-02T00:17:16.949Z,99.2
2022-11-02T00:18:17.377Z,99.2
2022-11-02T00:19:16.809Z,99.2
2022-11-02T00:20:17.311Z,99.2
2022-11-02T00:21:16.778Z,99.2
2022-11-02T00:22:16.742Z,99.2
2022-11-02T00:23:17.234Z,99.2
2022-11-02T00:24:16.718Z,99.2
2022-11-02T00:25:17.226Z,99.2
2022-11-02T00:26:16.695Z,99.2
2022-11-02T00:27:17.138Z,99.2
2022-11-02T00:28:16.620Z,99.2
2022-11-02T00:29:17.081Z,99.2
2022-11-02T00:30:16.506Z,99.2
2022-11-02T00:31:16.965Z,99.2
2022-11-02T00:32:16.855Z,99.2
2022-11-02T00:33:17.289Z,99.2
2022-11-02T00:34:16.719Z,99.2
2022-11-02T00:35:17.168Z,99.2
2022-11-02T00:36:16.617Z,99.2
2022-11-02T00:37:17.093Z,99.3
2022-11-02T00:38:16.559Z,99.4
2022-11-02T00:39:17.047Z,99.5
2022-11-02T00:40:16.535Z,99.6
2022-11-02T00:41:16.995Z,99.6
2022-11-02T00:42:16.803Z,99.5
2022-11-02T00:43:17.226Z,99.6
2022-11-02T00:44:16.655Z,99.7
2022-11-02T00:45:17.133Z,99.7
2022-11-02T00:46:16.568Z,99.8
2022-11-02T00:47:17.029Z,99.7
2022-11-02T00:48:16.498Z,99.6
2022-11-02T00:49:16.932Z,99.5
2022-11-02T00:50:17.399Z,99.5
2022-11-02T00:51:16.911Z,99.5
2022-11-02T00:52:17.425Z,99.5
2022-11-02T00:53:16.892Z,99.4
2022-11-02T00:54:17.390Z,99.3
2022-11-02T00:55:16.853Z,99.3
2022-11-02T00:56:17.346Z,99.3
2022-11-02T00:57:16.815Z,99.2
2022-11-02T00:58:17.238Z,99.2
2022-11-02T00:59:16.698Z,99.2
2022-11-02T01:00:17.134Z,99.3
2022-11-02T01:01:16.863Z,99.3
2022-11-02T01:02:17.512Z,99.2
2022-11-02T01:03:17.042Z,99.2
2022-11-02T01:04:16.535Z,99.1
2022-11-02T01:05:17.026Z,99.1
2022-11-02T01:06:16.498Z,99.2
2022-11-02T01:07:16.948Z,99.1
2022-11-02T01:08:17.413Z,99.1
2022-11-02T01:09:16.906Z,99.1
2022-11-02T01:10:17.384Z,99.1
2022-11-02T01:11:16.848Z,99.2
2022-11-02T01:12:17.360Z,99.2
2022-11-02T01:13:16.813Z,99.2
2022-11-02T01:14:17.293Z,99.2
2022-11-02T01:15:16.740Z,99.2
2022-11-02T01:16:17.181Z,99.2
2022-11-02T01:17:16.635Z,99.2
2022-11-02T01:18:17.061Z,99.1
2022-11-02T01:19:16.577Z,99.1
2022-11-02T01:20:17.050Z,99.1
2022-11-02T01:21:16.533Z,99.1
2022-11-02T01:22:17.290Z,99.1
2022-11-02T01:23:16.751Z,99.2
2022-11-02T01:24:17.232Z,99.2
2022-11-02T01:25:16.717Z,99.2
2022-11-02T01:26:17.169Z,99.2
2022-11-02T01:27:16.607Z,99.2
2022-11-02T01:28:17.029Z,99.1
2022-11-02T01:29:16.455Z,99.1
2022-11-02T01:30:16.884Z,99.0
2022-11-02T01:31:17.352Z,99.0
2022-11-02T01:32:17.455Z,99.0
2022-11-02T01:33:16.910Z,99.0
2022-11-02T01:34:17.358Z,99.0
2022-11-02T01:35:16.898Z,99.0
2022-11-02T01:36:17.525Z,99.0
2022-11-02T01:37:17.039Z,99.0
2022-11-02T01:38:16.494Z,99.0
2022-11-02T01:39:16.975Z,99.0
2022-11-02T01:40:16.436Z,99.0
2022-11-02T01:41:16.884Z,99.0
2022-11-02T01:42:16.648Z,98.9
2022-11-02T01:43:17.094Z,99.0
2022-11-02T01:44:16.514Z,98.9
2022-11-02T01:45:16.957Z,99.0
2022-11-02T01:46:17.404Z,99.0
2022-11-02T01:47:16.887Z,98.9
2022-11-02T01:48:17.340Z,98.9
2022-11-02T01:49:16.852Z,99.0
2022-11-02T01:50:17.316Z,99.0
2022-11-02T01:51:16.791Z,99.0
2022-11-02T01:52:17.324Z,99.0
2022-11-02T01:53:16.804Z,99.0
2022-11-02T01:54:17.279Z,99.0
2022-11-02T01:55:16.802Z,99.0
2022-11-02T01:56:17.349Z,98.9
2022-11-02T01:57:16.889Z,98.9
2022-11-02T01:58:17.318Z,98.9
2022-11-02T01:59:16.743Z,99.0
2022-11-02T02:00:17.177Z,99.0
2022-11-02T02:01:16.911Z,99.0
2022-11-02T02:02:17.011Z,99.0
2022-11-02T02:03:16.570Z,99.0
2022-11-02T02:04:17.026Z,99.0
2022-11-02T02:05:16.510Z,99.0
2022-11-02T02:06:16.971Z,99.0
2022-11-02T02:07:17.452Z,99.0
2022-11-02T02:08:16.913Z,99.0
2022-11-02T02:09:17.393Z,99.0
2022-11-02T02:10:16.834Z,99.0
2022-11-02T02:11:17.273Z,99.0
2022-11-02T02:12:17.275Z,99.0
2022-11-02T02:13:16.705Z,99.0
2022-11-02T02:14:17.151Z,99.0
2022-11-02T02:15:16.583Z,99.0
2022-11-02T02:16:17.008Z,99.0
2022-11-02T02:17:16.474Z,99.0
2022-11-02T02:18:16.951Z,99.1
2022-11-02T02:19:17.401Z,99.2
2022-11-02T02:20:16.874Z,99.1
2022-11-02T02:21:17.356Z,99.1
2022-11-02T02:22:17.302Z,99.1
2022-11-02T02:23:16.771Z,99.1
2022-11-02T02:24:17.199Z,99.1
2022-11-02T02:25:16.673Z,99.2
2022-11-02T02:26:17.102Z,99.2
2022-11-02T02:27:16.542Z,99.1
2022-11-02T02:28:16.972Z,99.2
2022-11-02T02:29:17.418Z,99.1
2022-11-02T02:30:16.845Z,99.0
2022-11-02T02:31:17.306Z,99.0
2022-11-02T02:32:17.038Z,99.2
2022-11-02T02:33:16.494Z,99.3
2022-11-02T02:34:16.962Z,99.2
2022-11-02T02:35:17.415Z,99.6
2022-11-02T02:36:16.862Z,99.7
2022-11-02T02:37:17.354Z,99.7
2022-11-02T02:38:16.825Z,99.7
2022-11-02T02:39:17.277Z,99.8
2022-11-02T02:40:16.748Z,99.9
2022-11-02T02:41:17.187Z,99.9
2022-11-02T02:42:17.035Z,99.9
2022-11-02T02:43:16.461Z,100.0
2022-11-02T02:44:16.906Z,100.0
2022-11-02T02:45:17.332Z,100.0
2022-11-02T02:46:16.813Z,100.0
2022-11-02T02:47:17.354Z,99.8
2022-11-02T02:48:16.822Z,99.6
2022-11-02T02:49:17.302Z,99.5
2022-11-02T02:50:16.752Z,99.5
2022-11-02T02:51:17.214Z,99.7
2022-11-02T02:52:17.084Z,99.5
2022-11-02T02:53:16.535Z,99.4
2022-11-02T02:54:17.011Z,99.4
2022-11-02T02:55:16.476Z,99.2
2022-11-02T02:56:16.927Z,99.1
2022-11-02T02:57:17.604Z,99.0
2022-11-02T02:58:17.073Z,99.0
2022-11-02T02:59:16.495Z,99.0
2022-11-02T03:00:16.942Z,99.0
2022-11-02T03:01:17.668Z,99.0
2022-11-02T03:02:17.474Z,99.0
2022-11-02T03:03:17.061Z,99.0
2022-11-02T03:04:16.532Z,99.0
2022-11-02T03:05:17.012Z,99.0
2022-11-02T03:06:16.485Z,99.0
2022-11-02T03:07:16.960Z,99.0
2022-11-02T03:08:17.397Z,99.0
2022-11-02T03:09:16.854Z,99.1
2022-11-02T03:10:17.301Z,99.1
2022-11-02T03:11:16.739Z,99.2
2022-11-02T03:12:16.511Z,99.2
2022-11-02T03:13:16.930Z,99.2
2022-11-02T03:14:17.373Z,99.2
2022-11-02T03:15:16.853Z,99.2
2022-11-02T03:16:17.325Z,99.2
2022-11-02T03:17:16.802Z,99.2
2022-11-02T03:18:17.280Z,99.3
2022-11-02T03:19:16.740Z,99.3
2022-11-02T03:20:17.213Z,99.3
2022-11-02T03:21:16.672Z,99.4
2022-11-02T03:22:16.583Z,99.4
2022-11-02T03:23:17.017Z,99.4
2022-11-02T03:24:16.443Z,99.4
2022-11-02T03:25:16.902Z,99.3
2022-11-02T03:26:17.347Z,99.4
2022-11-02T03:27:16.768Z,99.3
2022-11-02T03:28:17.195Z,99.4
2022-11-02T03:29:16.643Z,99.3
2022-11-02T03:30:17.091Z,99.3
2022-11-02T03:31:16.555Z,99.3
2022-11-02T03:32:17.490Z,99.4
2022-11-02T03:33:16.984Z,99.4
2022-11-02T03:34:16.450Z,99.3
2022-11-02T03:35:16.941Z,99.3
2022-11-02T03:36:17.429Z,99.3
2022-11-02T03:37:16.887Z,99.4
2022-11-02T03:38:17.327Z,99.4
2022-11-02T03:39:16.765Z,99.5
2022-11-02T03:40:17.219Z,99.4
2022-11-02T03:41:16.656Z,99.5
2022-11-02T03:42:17.202Z,99.5
2022-11-02T03:43:16.634Z,99.4
2022-11-02T03:44:17.076Z,99.4
2022-11-02T03:45:16.559Z,99.4
2022-11-02T03:46:17.022Z,99.4
2022-11-02T03:47:16.514Z,99.4
2022-11-02T03:48:16.993Z,99.5
2022-11-02T03:49:16.452Z,99.5
2022-11-02T03:50:16.934Z,99.5
2022-11-02T03:51:17.393Z,99.5
2022-11-02T03:52:17.436Z,99.5
2022-11-02T03:53:16.865Z,99.5
2022-11-02T03:54:17.297Z,99.5
2022-11-02T03:55:16.732Z,99.5
2022-11-02T03:56:17.185Z,99.6
2022-11-02T03:57:16.608Z,99.6
2022-11-02T03:58:17.037Z,99.6
2022-11-02T03:59:16.462Z,99.6
2022-11-02T04:00:16.953Z,99.6
2022-11-02T04:01:17.758Z,99.6
2022-11-02T04:02:17.490Z,99.6
2022-11-02T04:03:17.001Z,99.5
2022-11-02T04:04:16.451Z,99.6
2022-11-02T04:05:16.942Z,99.6
2022-11-02T04:06:17.409Z,99.6
2022-11-02T04:07:16.854Z,99.5
2022-11-02T04:08:17.284Z,99.5
2022-11-02T04:09:16.710Z,99.5
2022-11-02T04:10:17.165Z,99.5
2022-11-02T04:11:16.599Z,99.5
2022-11-02T04:12:16.719Z,99.5
2022-11-02T04:13:17.157Z,99.6
2022-11-02T04:14:16.631Z,99.5
2022-11-02T04:15:17.089Z,99.7
2022-11-02T04:16:16.537Z,99.7
2022-11-02T04:17:17.201Z,99.4
2022-11-02T04:18:16.698Z,99.3
2022-11-02T04:19:17.153Z,99.2
2022-11-02T04:20:16.608Z,99.3
2022-11-02T04:21:17.064Z,99.7
2022-11-02T04:22:16.770Z,99.8
2022-11-02T04:23:17.241Z,99.8
2022-11-02T04:24:16.695Z,100.0
2022-11-02T04:25:17.130Z,100.0
2022-11-02T04:26:16.596Z,100.0
2022-11-02T04:27:21.390Z,100.0
2022-11-02T04:28:16.916Z,100.0
2022-11-02T04:29:17.372Z,100.0
2022-11-02T04:30:16.843Z,100.0
2022-11-02T04:31:17.314Z,100.0
2022-11-02T04:32:17.140Z,100.0
2022-11-02T04:33:16.603Z,100.0
2022-11-02T04:34:17.058Z,100.0
2022-11-02T04:35:16.538Z,100.0
2022-11-02T04:36:16.973Z,100.0
2022-11-02T04:37:17.485Z,100.0
2022-11-02T04:38:17.003Z,100.0
2022-11-02T04:39:16.435Z,100.0
2022-11-02T04:40:16.861Z,100.0
2022-11-02T04:41:17.313Z,100.0
2022-11-02T04:42:16.500Z,100.0
2022-11-02T04:43:16.935Z,100.0
2022-11-02T04:44:17.392Z,100.0
2022-11-02T04:45:16.876Z,100.0
2022-11-02T04:46:17.346Z,100.0
2022-11-02T04:47:16.845Z,100.0
2022-11-02T04:48:17.348Z,100.0
2022-11-02T04:49:16.839Z,100.0
2022-11-02T04:50:17.313Z,100.0
2022-11-02T04:51:16.738Z,100.0
2022-11-02T04:52:17.302Z,100.0
2022-11-02T04:53:16.780Z,100.0
2022-11-02T04:54:17.249Z,100.0
2022-11-02T04:55:16.676Z,100.0
2022-11-02T04:56:17.144Z,100.0
2022-11-02T04:57:16.578Z,100.0
2022-11-02T04:58:17.054Z,100.0
2022-11-02T04:59:16.549Z,100.0
2022-11-02T05:00:17.000Z,100.0
2022-11-02T05:01:16.778Z,100.0
2022-11-02T05:02:16.871Z,100.0
2022-11-02T05:03:17.423Z,100.0
2022-11-02T05:04:16.910Z,100.0
2022-11-02T05:05:17.344Z,100.0
2022-11-02T05:06:16.781Z,100.0
2022-11-02T05:07:17.226Z,100.0
2022-11-02T05:08:16.665Z,100.0
2022-11-02T05:09:17.099Z,100.0
2022-11-02T05:10:16.541Z,100.0
2022-11-02T05:11:17.001Z,100.0
2022-11-02T05:12:16.810Z,100.0
2022-11-02T05:13:17.284Z,100.0
2022-11-02T05:14:16.754Z,100.0
2022-11-02T05:15:17.222Z,100.0
2022-11-02T05:16:16.700Z,100.0
2022-11-02T05:17:17.177Z,100.0
2022-11-02T05:18:19.415Z,100.0
2022-11-02T05:19:16.934Z,100.0
2022-11-02T05:20:17.385Z,100.0
2022-11-02T05:21:16.836Z,100.0
2022-11-02T05:22:17.066Z,100.0
2022-11-02T05:23:16.513Z,100.0
2022-11-02T05:24:16.955Z,100.0
2022-11-02T05:25:17.424Z,100.0
2022-11-02T05:26:16.891Z,100.0
2022-11-02T05:27:17.394Z,100.0
2022-11-02T05:28:16.862Z,100.0
2022-11-02T05:29:17.312Z,100.0
2022-11-02T05:30:16.787Z,100.0
2022-11-02T05:31:17.240Z,100.0
2022-11-02T05:32:16.928Z,100.0
2022-11-02T05:33:17.401Z,100.0
2022-11-02T05:34:16.836Z,100.0
2022-11-02T05:35:17.307Z,100.0
2022-11-02T05:36:16.755Z,100.0
2022-11-02T05:37:17.184Z,100.0
2022-11-02T05:38:16.617Z,100.0
2022-11-02T05:39:17.042Z,100.0
2022-11-02T05:40:16.479Z,100.0
2022-11-02T05:41:16.909Z,100.0
2022-11-02T05:42:17.450Z,100.0
2022-11-02T05:43:16.923Z,100.0
2022-11-02T05:44:17.386Z,100.0
2022-11-02T05:45:23.705Z,100.0
2022-11-02T05:46:17.020Z,100.0
2022-11-02T05:47:16.489Z,100.0
2022-11-02T05:48:16.952Z,100.0
2022-11-02T05:49:17.392Z,100.0
2022-11-02T05:50:16.843Z,100.0
2022-11-02T05:51:17.321Z,100.0
2022-11-02T05:52:17.494Z,100.0
2022-11-02T05:53:16.976Z,100.0
2022-11-02T05:54:16.430Z,100.0
2022-11-02T05:55:16.853Z,100.0
2022-11-02T05:56:24.927Z,100.0
2022-11-02T05:57:16.618Z,100.0
2022-11-02T05:58:17.076Z,100.0
2022-11-02T05:59:16.548Z,100.0
2022-11-02T06:00:17.105Z,100.0
2022-11-02T06:01:16.691Z,100.0
2022-11-02T06:02:16.502Z,100.0
2022-11-02T06:03:16.967Z,100.0
2022-11-02T06:04:17.604Z,100.0
2022-11-02T06:05:17.171Z,100.0
2022-11-02T06:06:16.657Z,100.0
2022-11-02T06:07:17.085Z,100.0
2022-11-02T06:08:16.509Z,100.0
2022-11-02T06:09:16.937Z,100.0
2022-11-02T06:10:17.433Z,100.0
2022-11-02T06:11:16.944Z,100.0
2022-11-02T06:12:17.033Z,100.0
2022-11-02T06:13:16.495Z,100.0
2022-11-02T06:14:16.986Z,100.0
2022-11-02T06:15:16.481Z,100.0
2022-11-02T06:16:23.387Z,100.0
2022-11-02T06:17:16.966Z,100.0
2022-11-02T06:18:17.386Z,100.0
2022-11-02T06:19:16.863Z,100.0
2022-11-02T06:20:17.313Z,100.0
2022-11-02T06:21:16.750Z,100.0
2022-11-02T06:22:16.599Z,100.0
2022-11-02T06:23:17.029Z,100.0
2022-11-02T06:24:16.473Z,100.0
2022-11-02T06:25:16.937Z,100.0
2022-11-02T06:26:17.400Z,100.0
2022-11-02T06:27:16.871Z,100.0
2022-11-02T06:28:17.338Z,100.0
2022-11-02T06:29:16.818Z,100.0
2022-11-02T06:30:17.307Z,100.0
2022-11-02T06:31:16.744Z,100.0
2022-11-02T06:32:16.479Z,100.0
2022-11-02T06:33:16.905Z,100.0
2022-11-02T06:34:17.374Z,100.0
2022-11-02T06:35:16.851Z,100.0
2022-11-02T06:36:17.303Z,100.0
2022-11-02T06:37:16.724Z,100.0
2022-11-02T06:38:17.201Z,100.0
2022-11-02T06:39:16.672Z,100.0
2022-11-02T06:40:20.348Z,100.0
2022-11-02T06:41:17.217Z,100.0
2022-11-02T06:42:16.483Z,100.0
2022-11-02T06:43:18.108Z,100.0
2022-11-02T06:44:16.662Z,100.0
2022-11-02T06:45:17.158Z,100.0
2022-11-02T06:46:16.616Z,100.0
2022-11-02T06:47:17.043Z,99.9
2022-11-02T06:48:16.497Z,99.9
2022-11-02T06:49:16.928Z,99.9
2022-11-02T06:50:17.359Z,99.8
2022-11-02T06:51:16.814Z,99.8
2022-11-02T06:52:16.488Z,99.8
2022-11-02T06:53:16.948Z,99.8
2022-11-02T06:54:17.393Z,99.7
2022-11-02T06:55:16.865Z,99.7
2022-11-02T06:56:17.315Z,99.5
2022-11-02T06:57:16.791Z,99.5
2022-11-02T06:58:17.309Z,99.5
2022-11-02T06:59:16.826Z,99.5
2022-11-02T07:00:22.849Z,99.5
2022-11-02T07:01:16.753Z,99.4
2022-11-02T07:02:16.736Z,99.3
2022-11-02T07:03:17.200Z,99.3
2022-11-02T07:04:16.681Z,99.3
2022-11-02T07:05:17.135Z,99.3
2022-11-02T07:06:16.559Z,99.0
2022-11-02T07:07:17.019Z,99.0
2022-11-02T07:08:16.457Z,99.0
2022-11-02T07:09:16.917Z,98.8
2022-11-02T07:10:17.380Z,98.7
2022-11-02T07:11:16.893Z,98.7
2022-11-02T07:12:23.351Z,98.7
2022-11-02T07:13:16.867Z,98.7
2022-11-02T07:14:17.321Z,98.7
2022-11-02T07:15:16.779Z,98.7
2022-11-02T07:16:17.204Z,98.7
2022-11-02T07:17:16.679Z,98.4
2022-11-02T07:18:17.113Z,98.3
2022-11-02T07:19:16.545Z,98.3
2022-11-02T07:20:16.981Z,98.3
2022-11-02T07:21:16.516Z,98.4
2022-11-02T07:22:16.746Z,98.3
2022-11-02T07:23:17.224Z,98.2
2022-11-02T07:24:16.686Z,98.0
2022-11-02T07:25:17.173Z,98.2
2022-11-02T07:26:16.642Z,98.1
2022-11-02T07:27:17.147Z,97.8
2022-11-02T07:28:16.656Z,97.8
2022-11-02T07:29:17.092Z,97.8
2022-11-02T07:30:16.562Z,97.8
2022-11-02T07:31:17.001Z,97.7
2022-11-02T07:32:16.909Z,97.6
2022-11-02T07:33:17.337Z,97.5
2022-11-02T07:34:17.571Z,97.4
2022-11-02T07:35:17.008Z,97.4
2022-11-02T07:36:16.485Z,97.3
2022-11-02T07:37:16.938Z,97.4
2022-11-02T07:38:17.404Z,97.2
2022-11-02T07:39:16.924Z,97.2
2022-11-02T07:40:17.388Z,97.2
2022-11-02T07:41:16.878Z,97.2
2022-11-02T07:42:16.575Z,97.2
2022-11-02T07:43:17.069Z,97.3
2022-11-02T07:44:16.500Z,97.3
2022-11-02T07:45:16.926Z,97.2
2022-11-02T07:46:17.355Z,97.0
2022-11-02T07:47:16.825Z,96.8
2022-11-02T07:48:17.263Z,96.8
2022-11-02T07:49:21.803Z,96.5
2022-11-02T07:50:17.295Z,96.3
2022-11-02T07:51:16.769Z,96.2
2022-11-02T07:52:17.326Z,96.0
2022-11-02T07:53:16.788Z,95.9
2022-11-02T07:54:17.307Z,95.7
2022-11-02T07:55:16.759Z,95.5
2022-11-02T07:56:17.231Z,95.5
2022-11-02T07:57:16.740Z,95.5
2022-11-02T07:58:17.239Z,95.5
2022-11-02T07:59:16.698Z,95.2
2022-11-02T08:00:17.135Z,95.0
2022-11-02T08:01:16.685Z,95.2
2022-11-02T08:02:17.611Z,95.2
2022-11-02T08:03:17.477Z,95.2
2022-11-02T08:04:17.297Z,95.1
2022-11-02T08:05:16.988Z,95.0
2022-11-02T08:06:16.662Z,95.1
2022-11-02T08:07:17.271Z,95.2
2022-11-02T08:08:16.904Z,95.2
2022-11-02T08:09:17.582Z,94.9
2022-11-02T08:10:17.172Z,94.9
2022-11-02T08:11:16.764Z,95.0
2022-11-02T08:12:16.766Z,95.0
2022-11-02T08:13:17.347Z,95.1
2022-11-02T08:14:16.985Z,95.0
2022-11-02T08:15:16.579Z,95.0
2022-11-02T08:16:17.166Z,95.0
2022-11-02T08:17:16.693Z,95.0
2022-11-02T08:18:17.268Z,94.8
2022-11-02T08:19:16.726Z,94.5
2022-11-02T08:20:17.160Z,94.8
2022-11-02T08:21:16.638Z,94.8
2022-11-02T08:22:16.572Z,94.8
2022-11-02T08:23:17.045Z,94.7
2022-11-02T08:24:16.531Z,94.3
2022-11-02T08:25:17.040Z,94.7
2022-11-02T08:26:16.548Z,94.8
2022-11-02T08:27:17.013Z,94.6
2022-11-02T08:28:16.485Z,94.2
2022-11-02T08:29:16.921Z,94.1
2022-11-02T08:30:17.353Z,94.0
2022-11-02T08:31:16.780Z,94.2
2022-11-02T08:32:16.416Z,94.5
2022-11-02T08:33:16.857Z,94.0
2022-11-02T08:34:17.347Z,93.6
2022-11-02T08:35:16.801Z,93.3
2022-11-02T08:36:17.273Z,93.3
2022-11-02T08:37:16.776Z,93.0
2022-11-02T08:38:17.289Z,92.8
2022-11-02T08:39:19.336Z,92.6
2022-11-02T08:40:16.836Z,92.2
2022-11-02T08:41:17.311Z,92.2
2022-11-02T08:42:16.935Z,91.8
2022-11-02T08:43:17.362Z,92.0
2022-11-02T08:44:16.800Z,92.0
2022-11-02T08:45:17.279Z,92.2
2022-11-02T08:46:17.563Z,91.6
2022-11-02T08:47:17.101Z,92.0
2022-11-02T08:48:16.615Z,91.6
2022-11-02T08:49:17.066Z,91.3
2022-11-02T08:50:16.529Z,91.9
2022-11-02T08:51:17.015Z,91.4
2022-11-02T08:52:16.554Z,91.3
2022-11-02T08:53:17.032Z,91.3
2022-11-02T08:54:16.504Z,90.8
2022-11-02T08:55:16.974Z,90.7
2022-11-02T08:56:17.422Z,90.4
2022-11-02T08:57:16.856Z,90.6
2022-11-02T08:58:17.301Z,90.5
2022-11-02T08:59:16.753Z,91.0
2022-11-02T09:00:17.188Z,91.6
2022-11-02T09:01:16.844Z,91.0
2022-11-02T09:02:17.273Z,91.0
2022-11-02T09:03:26.085Z,91.0
2022-11-02T09:04:16.982Z,90.8
2022-11-02T09:05:16.456Z,90.9
2022-11-02T09:06:16.946Z,90.7
2022-11-02T09:07:17.442Z,90.9
2022-11-02T09:08:17.366Z,91.7
2022-11-02T09:09:16.849Z,91.6
2022-11-02T09:10:17.287Z,91.9
2022-11-02T09:11:16.712Z,91.7
2022-11-02T09:12:16.855Z,91.4
2022-11-02T09:13:17.280Z,91.6
2022-11-02T09:14:17.036Z,91.5
2022-11-02T09:15:16.544Z,92.2
2022-11-02T09:16:16.999Z,92.2
2022-11-02T09:17:16.462Z,91.7
2022-11-02T09:18:16.929Z,92.0
2022-11-02T09:19:17.397Z,92.1
2022-11-02T09:20:16.892Z,91.9
2022-11-02T09:21:17.364Z,91.7
2022-11-02T09:22:17.327Z,91.8
2022-11-02T09:23:16.785Z,91.9
2022-11-02T09:24:17.210Z,91.7
2022-11-02T09:25:16.664Z,91.7
2022-11-02T09:26:17.100Z,91.3
2022-11-02T09:27:16.578Z,91.2
2022-11-02T09:28:17.034Z,90.9
2022-11-02T09:29:16.598Z,90.6
2022-11-02T09:30:17.088Z,90.2
2022-11-02T09:31:16.573Z,89.4
2022-11-02T09:32:16.600Z,88.8
2022-11-02T09:33:17.118Z,88.3
2022-11-02T09:34:16.588Z,88.0
2022-11-02T09:35:17.068Z,88.2
2022-11-02T09:36:16.533Z,87.5
2022-11-02T09:37:17.016Z,87.0
2022-11-02T09:38:16.465Z,87.7
2022-11-02T09:39:16.912Z,87.7
2022-11-02T09:40:17.382Z,87.5
2022-11-02T09:41:16.807Z,87.1
2022-11-02T09:42:16.627Z,87.4
2022-11-02T09:43:17.051Z,86.8
2022-11-02T09:44:16.485Z,86.4
2022-11-02T09:45:16.977Z,86.5
2022-11-02T09:46:16.471Z,86.5
2022-11-02T09:48:03.285Z,86.8
2022-11-02T09:48:27.016Z,87.4
2022-11-02T09:49:16.590Z,87.0
2022-11-02T09:50:17.134Z,86.8
2022-11-02T09:51:16.639Z,86.5
2022-11-02T09:52:16.479Z,86.3
2022-11-02T09:53:16.929Z,86.1
2022-11-02T09:54:18.244Z,85.7
2022-11-02T09:55:16.725Z,85.8
2022-11-02T09:56:17.195Z,85.5
2022-11-02T09:57:16.626Z,85.3
2022-11-02T09:58:17.093Z,85.2
2022-11-02T09:59:16.546Z,84.9
2022-11-02T10:00:17.029Z,84.9
2022-11-02T10:01:16.659Z,85.1
2022-11-02T10:02:17.652Z,84.8
2022-11-02T10:03:17.157Z,84.5
2022-11-02T10:04:16.611Z,84.5
2022-11-02T10:05:17.092Z,84.4
2022-11-02T10:06:16.567Z,84.8
2022-11-02T10:07:17.023Z,84.7
2022-11-02T10:08:16.494Z,85.5
2022-11-02T10:09:16.932Z,84.5
2022-11-02T10:10:17.371Z,84.5
2022-11-02T10:11:16.804Z,83.8
2022-11-02T10:12:17.387Z,83.8
2022-11-02T10:13:16.848Z,84.0
2022-11-02T10:14:17.326Z,84.5
2022-11-02T10:15:16.811Z,84.1
2022-11-02T10:16:17.308Z,84.4
2022-11-02T10:17:16.791Z,84.7
2022-11-02T10:18:17.256Z,84.1
2022-11-02T10:19:16.738Z,84.2
2022-11-02T10:20:17.184Z,84.4
2022-11-02T10:21:16.613Z,84.3
2022-11-02T10:22:17.085Z,84.7
2022-11-02T10:23:16.532Z,84.2
2022-11-02T10:24:16.987Z,84.2
2022-11-02T10:25:16.425Z,84.2
2022-11-02T10:26:16.869Z,83.7
2022-11-02T10:27:17.317Z,83.8
2022-11-02T10:28:17.059Z,83.7
2022-11-02T10:29:16.599Z,84.2
2022-11-02T10:30:17.082Z,83.5
2022-11-02T10:31:16.552Z,83.8
2022-11-02T10:32:16.966Z,83.3
2022-11-02T10:33:17.437Z,84.2
2022-11-02T10:34:16.898Z,84.8
2022-11-02T10:35:40.971Z,84.8
2022-11-02T10:36:19.593Z,84.4
2022-11-02T10:37:17.202Z,84.1
2022-11-02T10:38:17.410Z,84.0
2022-11-02T10:39:16.970Z,84.0
2022-11-02T10:40:17.417Z,84.3
2022-11-02T10:41:16.872Z,84.4
2022-11-02T10:42:17.188Z,84.0
2022-11-02T10:43:16.656Z,83.9
2022-11-02T10:44:17.114Z,83.8
2022-11-02T10:45:16.634Z,84.1
2022-11-02T10:46:17.105Z,84.4
2022-11-02T10:47:16.599Z,84.2
2022-11-02T10:48:17.099Z,83.8
2022-11-02T10:49:16.569Z,83.6
2022-11-02T10:50:17.032Z,83.5
2022-11-02T10:51:16.475Z,83.7
2022-11-02T10:52:17.365Z,84.3
2022-11-02T10:53:40.933Z,83.8
2022-11-02T10:54:26.577Z,84.2
2022-11-02T10:55:17.200Z,83.3
2022-11-02T10:56:16.640Z,83.3
2022-11-02T10:57:17.124Z,83.5
2022-11-02T10:58:16.633Z,83.5
2022-11-02T10:59:17.111Z,83.2
2022-11-02T11:00:16.623Z,82.7
2022-11-02T11:01:17.410Z,82.8
2022-11-02T11:02:17.686Z,82.8
2022-11-02T11:03:17.327Z,83.0
2022-11-02T11:04:16.883Z,83.2
2022-11-02T11:05:17.345Z,82.7
2022-11-02T11:06:16.774Z,83.2
2022-11-02T11:07:17.196Z,82.8
2022-11-02T11:08:16.674Z,82.2
2022-11-02T11:09:17.110Z,82.1
2022-11-02T11:10:16.537Z,82.3
2022-11-02T11:11:16.972Z,82.3
2022-11-02T11:12:17.192Z,82.0
2022-11-02T11:15:48.446Z,82.8
2022-11-02T11:16:22.926Z,82.2
2022-11-02T11:19:41.615Z,81.2
2022-11-02T11:20:16.417Z,79.8
2022-11-02T11:21:16.855Z,79.3
2022-11-02T11:22:16.605Z,79.7
2022-11-02T11:23:17.073Z,79.3
2022-11-02T11:24:16.581Z,79.0
2022-11-02T11:25:17.066Z,78.8
2022-11-02T11:26:16.518Z,79.3
2022-11-02T11:27:17.022Z,78.7
2022-11-02T11:28:16.507Z,79.2
2022-11-02T11:29:16.985Z,78.9
2022-11-02T11:30:46.560Z,78.3
2022-11-02T11:31:16.986Z,78.6
2022-11-02T11:32:17.064Z,78.4
2022-11-02T11:33:16.533Z,79.2
2022-11-02T11:34:17.017Z,79.1
2022-11-02T11:35:16.450Z,78.8
2022-11-02T11:36:16.954Z,78.4
2022-11-02T11:37:17.433Z,78.3
2022-11-02T11:38:16.859Z,78.2
2022-11-02T11:39:17.331Z,78.2
2022-11-02T11:40:16.923Z,78.8
2022-11-02T11:41:17.410Z,78.8
2022-11-02T11:42:16.530Z,79.2
2022-11-02T11:43:17.053Z,79.3
2022-11-02T11:44:16.542Z,79.3
2022-11-02T11:45:17.035Z,79.5
2022-11-02T11:46:16.514Z,79.3
2022-11-02T11:47:16.968Z,79.2
2022-11-02T11:48:17.415Z,79.3
2022-11-02T11:49:16.858Z,79.2
2022-11-02T11:50:23.341Z,79.7
2022-11-02T11:51:24.379Z,79.5
2022-11-02T11:52:17.357Z,79.3
2022-11-02T11:53:16.798Z,80.0
2022-11-02T11:54:17.221Z,80.1
2022-11-02T11:55:16.678Z,79.4
2022-11-02T11:56:17.162Z,79.5
2022-11-02T11:57:16.635Z,80.5
2022-11-02T11:58:17.093Z,79.8
2022-11-02T11:59:16.576Z,80.0
2022-11-02T12:00:17.036Z,80.8
2022-11-02T12:01:16.716Z,80.0
2022-11-02T12:02:18.044Z,80.0
2022-11-02T12:03:16.765Z,80.1
2022-11-02T12:04:17.255Z,79.5
2022-11-02T12:05:16.709Z,79.5
2022-11-02T12:06:17.143Z,79.8
2022-11-02T12:07:16.614Z,79.9
2022-11-02T12:08:17.212Z,80.9
2022-11-02T12:09:16.664Z,80.5
2022-11-02T12:10:17.127Z,80.4
2022-11-02T12:11:19.471Z,80.1
2022-11-02T12:12:16.483Z,80.2
2022-11-02T12:13:16.951Z,80.0
2022-11-02T12:14:17.445Z,79.7
2022-11-02T12:15:16.923Z,79.7
2022-11-02T12:16:17.353Z,79.6
2022-11-02T12:17:16.789Z,79.5
2022-11-02T12:18:17.218Z,79.0
2022-11-02T12:19:16.701Z,79.1
2022-11-02T12:20:17.167Z,79.3
2022-11-02T12:21:16.601Z,79.4
2022-11-02T12:22:17.207Z,79.3
2022-11-02T12:23:16.679Z,79.0
2022-11-02T12:24:17.126Z,79.0
2022-11-02T12:25:16.626Z,78.7
2022-11-02T12:26:17.140Z,78.5
2022-11-02T12:27:16.635Z,78.3
2022-11-02T12:28:17.092Z,78.0
2022-11-02T12:29:16.593Z,77.5
2022-11-02T12:30:17.051Z,77.1
2022-11-02T12:31:16.540Z,77.2
2022-11-02T12:32:17.289Z,77.5
2022-11-02T12:33:16.752Z,76.8
2022-11-02T12:34:17.175Z,77.1
2022-11-02T12:35:30.027Z,77.4
2022-11-02T12:36:16.806Z,76.7
2022-11-02T12:37:40.221Z,76.5
2022-11-02T12:38:17.041Z,77.1
2022-11-02T12:39:16.541Z,77.2
2022-11-02T12:40:17.136Z,76.4
2022-11-02T12:41:16.648Z,76.2
2022-11-02T12:42:17.111Z,75.5
2022-11-02T12:43:16.612Z,73.8
2022-11-02T12:44:17.140Z,74.0
2022-11-02T12:45:16.584Z,73.0
2022-11-02T12:46:17.017Z,73.6
2022-11-02T12:47:16.446Z,72.5
2022-11-02T12:48:16.875Z,72.3
2022-11-02T12:49:17.332Z,73.1
2022-11-02T12:50:16.760Z,72.4
2022-11-02T12:51:17.187Z,73.1
2022-11-02T12:52:17.141Z,72.4
2022-11-02T12:53:16.612Z,73.0
2022-11-02T12:54:17.097Z,73.3
2022-11-02T12:55:17.708Z,73.3
2022-11-02T12:56:17.200Z,72.8
2022-11-02T12:57:16.697Z,72.9
2022-11-02T12:58:17.217Z,72.8
2022-11-02T12:59:16.702Z,72.4
2022-11-02T13:00:17.131Z,73.7
2022-11-02T13:01:16.814Z,72.1
2022-11-02T13:02:16.798Z,72.4
2022-11-02T13:03:17.236Z,73.5
2022-11-02T13:04:16.666Z,73.2
2022-11-02T13:05:17.088Z,72.8
2022-11-02T13:06:16.573Z,72.2
2022-11-02T13:07:17.073Z,72.3
2022-11-02T13:08:16.547Z,73.1
2022-11-02T13:09:17.023Z,73.0
2022-11-02T13:10:16.476Z,73.4
2022-11-02T13:11:16.931Z,72.5
2022-11-02T13:12:16.727Z,72.5
2022-11-02T13:13:17.176Z,72.2
2022-11-02T13:14:16.643Z,72.1
2022-11-02T13:15:17.114Z,72.3
2022-11-02T13:16:16.542Z,72.2
2022-11-02T13:17:16.975Z,71.8